sensor_id;sensor_type;location;lat;lon;timestamp;P1;durP1;ratioP1;P2;durP2;ratioP2
37791;SDS011;29527;55.766;37.570;2023-12-20T00:00:25;1.65;;;1.00;;
37791;SDS011;29527;55.766;37.570;2023-12-20T00:02:50;1.38;;;0.95;;
37791;SDS011;29527;55.766;37.570;2023-12-20T00:05:16;1.48;;;0.98;;
37791;SDS011;29527;55.766;37.570;2023-12-20T00:07:42;1.92;;;0.85;;
37791;SDS011;29527;55.766;37.570;2023-12-20T00:10:08;1.30;;;1.05;;
37791;SDS011;29527;55.766;37.570;2023-12-20T00:12:34;1.08;;;0.77;;
37791;SDS011;29527;55.766;37.570;2023-12-20T00:14:59;2.53;;;1.20;;
37791;SDS011;29527;55.766;37.570;2023-12-20T00:17:25;1.95;;;1.20;;
37791;SDS011;29527;55.766;37.570;2023-12-20T00:19:50;1.95;;;0.93;;
37791;SDS011;29527;55.766;37.570;2023-12-20T00:22:16;1.35;;;1.00;;
37791;SDS011;29527;55.766;37.570;2023-12-20T00:24:41;1.33;;;1.00;;
37791;SDS011;29527;55.766;37.570;2023-12-20T00:27:07;1.10;;;1.00;;
37791;SDS011;29527;55.766;37.570;2023-12-20T00:29:32;2.40;;;1.25;;
37791;SDS011;29527;55.766;37.570;2023-12-20T00:31:58;3.92;;;1.20;;
37791;SDS011;29527;55.766;37.570;2023-12-20T00:34:23;2.45;;;1.13;;
37791;SDS011;29527;55.766;37.570;2023-12-20T00:36:49;2.00;;;1.23;;
37791;SDS011;29527;55.766;37.570;2023-12-20T00:39:15;2.50;;;1.30;;
37791;SDS011;29527;55.766;37.570;2023-12-20T00:41:40;2.88;;;1.35;;
37791;SDS011;29527;55.766;37.570;2023-12-20T00:44:06;2.60;;;1.40;;
37791;SDS011;29527;55.766;37.570;2023-12-20T00:46:31;2.10;;;1.52;;
37791;SDS011;29527;55.766;37.570;2023-12-20T00:48:57;2.00;;;1.63;;
37791;SDS011;29527;55.766;37.570;2023-12-20T00:51:23;2.67;;;2.00;;
37791;SDS011;29527;55.766;37.570;2023-12-20T00:53:49;2.40;;;1.58;;
37791;SDS011;29527;55.766;37.570;2023-12-20T00:56:15;1.60;;;1.50;;
37791;SDS011;29527;55.766;37.570;2023-12-20T00:58:41;2.17;;;1.88;;
37791;SDS011;29527;55.766;37.570;2023-12-20T01:01:06;2.35;;;1.60;;
37791;SDS011;29527;55.766;37.570;2023-12-20T01:03:32;2.00;;;1.80;;
37791;SDS011;29527;55.766;37.570;2023-12-20T01:05:57;2.22;;;1.63;;
37791;SDS011;29527;55.766;37.570;2023-12-20T01:08:23;3.78;;;2.10;;
37791;SDS011;29527;55.766;37.570;2023-12-20T01:10:48;2.40;;;1.83;;
37791;SDS011;29527;55.766;37.570;2023-12-20T01:13:14;2.30;;;1.55;;
37791;SDS011;29527;55.766;37.570;2023-12-20T01:15:39;1.70;;;1.60;;
37791;SDS011;29527;55.766;37.570;2023-12-20T01:18:05;3.10;;;1.80;;
37791;SDS011;29527;55.766;37.570;2023-12-20T01:20:31;1.85;;;1.40;;
37791;SDS011;29527;55.766;37.570;2023-12-20T01:22:56;3.15;;;2.00;;
37791;SDS011;29527;55.766;37.570;2023-12-20T01:25:22;2.13;;;1.77;;
37791;SDS011;29527;55.766;37.570;2023-12-20T01:27:47;2.33;;;1.75;;
37791;SDS011;29527;55.766;37.570;2023-12-20T01:30:14;2.67;;;1.95;;
37791;SDS011;29527;55.766;37.570;2023-12-20T01:32:40;2.25;;;1.58;;
37791;SDS011;29527;55.766;37.570;2023-12-20T01:35:05;2.80;;;1.50;;
37791;SDS011;29527;55.766;37.570;2023-12-20T01:37:31;4.00;;;1.67;;
37791;SDS011;29527;55.766;37.570;2023-12-20T01:39:57;2.03;;;1.83;;
37791;SDS011;29527;55.766;37.570;2023-12-20T01:42:22;2.00;;;1.35;;
37791;SDS011;29527;55.766;37.570;2023-12-20T01:44:48;1.60;;;1.40;;
37791;SDS011;29527;55.766;37.570;2023-12-20T01:47:14;2.00;;;1.55;;
37791;SDS011;29527;55.766;37.570;2023-12-20T01:49:40;3.35;;;1.70;;
37791;SDS011;29527;55.766;37.570;2023-12-20T01:52:06;2.30;;;1.50;;
37791;SDS011;29527;55.766;37.570;2023-12-20T01:54:32;2.40;;;1.25;;
37791;SDS011;29527;55.766;37.570;2023-12-20T01:56:58;2.13;;;1.30;;
37791;SDS011;29527;55.766;37.570;2023-12-20T01:59:23;2.25;;;1.23;;
37791;SDS011;29527;55.766;37.570;2023-12-20T02:01:49;4.28;;;1.10;;
37791;SDS011;29527;55.766;37.570;2023-12-20T02:04:15;3.28;;;1.13;;
37791;SDS011;29527;55.766;37.570;2023-12-20T02:06:41;2.53;;;1.02;;
37791;SDS011;29527;55.766;37.570;2023-12-20T02:09:08;2.35;;;1.15;;
37791;SDS011;29527;55.766;37.570;2023-12-20T02:11:34;2.55;;;0.93;;
37791;SDS011;29527;55.766;37.570;2023-12-20T02:14:01;1.85;;;0.85;;
37791;SDS011;29527;55.766;37.570;2023-12-20T02:16:27;3.95;;;1.00;;
37791;SDS011;29527;55.766;37.570;2023-12-20T02:18:53;3.25;;;0.95;;
37791;SDS011;29527;55.766;37.570;2023-12-20T02:21:24;1.83;;;0.98;;
37791;SDS011;29527;55.766;37.570;2023-12-20T02:23:50;3.22;;;1.02;;
37791;SDS011;29527;55.766;37.570;2023-12-20T02:26:16;1.40;;;0.82;;
37791;SDS011;29527;55.766;37.570;2023-12-20T02:28:42;2.97;;;0.80;;
37791;SDS011;29527;55.766;37.570;2023-12-20T02:31:07;1.30;;;0.70;;
37791;SDS011;29527;55.766;37.570;2023-12-20T02:33:33;2.58;;;0.63;;
37791;SDS011;29527;55.766;37.570;2023-12-20T02:35:58;3.38;;;0.82;;
37791;SDS011;29527;55.766;37.570;2023-12-20T02:38:24;3.50;;;1.02;;
37791;SDS011;29527;55.766;37.570;2023-12-20T02:40:50;1.45;;;0.65;;
37791;SDS011;29527;55.766;37.570;2023-12-20T02:43:15;1.55;;;0.50;;
37791;SDS011;29527;55.766;37.570;2023-12-20T02:45:41;1.58;;;0.90;;
37791;SDS011;29527;55.766;37.570;2023-12-20T02:48:06;1.40;;;0.63;;
37791;SDS011;29527;55.766;37.570;2023-12-20T02:50:32;2.60;;;0.95;;
37791;SDS011;29527;55.766;37.570;2023-12-20T02:52:57;2.22;;;0.80;;
37791;SDS011;29527;55.766;37.570;2023-12-20T02:55:23;3.13;;;1.05;;
37791;SDS011;29527;55.766;37.570;2023-12-20T02:57:48;1.65;;;1.23;;
37791;SDS011;29527;55.766;37.570;2023-12-20T03:00:14;2.83;;;1.35;;
37791;SDS011;29527;55.766;37.570;2023-12-20T03:02:58;3.25;;;1.80;;
37791;SDS011;29527;55.766;37.570;2023-12-20T03:05:24;3.58;;;1.48;;
37791;SDS011;29527;55.766;37.570;2023-12-20T03:07:50;2.83;;;1.42;;
37791;SDS011;29527;55.766;37.570;2023-12-20T03:10:17;3.35;;;1.55;;
37791;SDS011;29527;55.766;37.570;2023-12-20T03:12:44;2.75;;;1.35;;
37791;SDS011;29527;55.766;37.570;2023-12-20T03:15:09;1.95;;;1.63;;
37791;SDS011;29527;55.766;37.570;2023-12-20T03:17:35;3.13;;;1.75;;
37791;SDS011;29527;55.766;37.570;2023-12-20T03:20:01;3.10;;;1.80;;
37791;SDS011;29527;55.766;37.570;2023-12-20T03:22:27;3.88;;;1.73;;
37791;SDS011;29527;55.766;37.570;2023-12-20T03:24:53;3.17;;;1.83;;
37791;SDS011;29527;55.766;37.570;2023-12-20T03:27:18;3.85;;;1.63;;
37791;SDS011;29527;55.766;37.570;2023-12-20T03:29:44;3.05;;;1.80;;
37791;SDS011;29527;55.766;37.570;2023-12-20T03:32:11;2.55;;;1.45;;
37791;SDS011;29527;55.766;37.570;2023-12-20T03:34:36;1.80;;;1.40;;
37791;SDS011;29527;55.766;37.570;2023-12-20T03:37:02;2.72;;;1.70;;
37791;SDS011;29527;55.766;37.570;2023-12-20T03:39:27;2.08;;;1.65;;
37791;SDS011;29527;55.766;37.570;2023-12-20T03:41:53;2.67;;;1.80;;
37791;SDS011;29527;55.766;37.570;2023-12-20T03:44:18;2.75;;;1.88;;
37791;SDS011;29527;55.766;37.570;2023-12-20T03:46:45;3.38;;;1.95;;
37791;SDS011;29527;55.766;37.570;2023-12-20T03:49:11;5.10;;;2.42;;
37791;SDS011;29527;55.766;37.570;2023-12-20T03:51:36;3.65;;;2.10;;
37791;SDS011;29527;55.766;37.570;2023-12-20T03:54:02;4.55;;;2.20;;
37791;SDS011;29527;55.766;37.570;2023-12-20T03:56:28;3.90;;;2.22;;
37791;SDS011;29527;55.766;37.570;2023-12-20T03:58:53;4.00;;;1.98;;
37791;SDS011;29527;55.766;37.570;2023-12-20T04:01:19;2.50;;;2.30;;
37791;SDS011;29527;55.766;37.570;2023-12-20T04:03:44;3.70;;;2.17;;
37791;SDS011;29527;55.766;37.570;2023-12-20T04:06:10;4.28;;;2.80;;
37791;SDS011;29527;55.766;37.570;2023-12-20T04:08:41;3.45;;;2.78;;
37791;SDS011;29527;55.766;37.570;2023-12-20T04:11:06;5.20;;;2.67;;
37791;SDS011;29527;55.766;37.570;2023-12-20T04:13:32;5.30;;;2.90;;
37791;SDS011;29527;55.766;37.570;2023-12-20T04:15:57;3.40;;;2.75;;
37791;SDS011;29527;55.766;37.570;2023-12-20T04:18:23;3.63;;;2.65;;
37791;SDS011;29527;55.766;37.570;2023-12-20T04:20:48;4.75;;;2.75;;
37791;SDS011;29527;55.766;37.570;2023-12-20T04:23:15;4.50;;;2.58;;
37791;SDS011;29527;55.766;37.570;2023-12-20T04:25:40;4.22;;;2.88;;
37791;SDS011;29527;55.766;37.570;2023-12-20T04:28:06;4.07;;;3.10;;
37791;SDS011;29527;55.766;37.570;2023-12-20T04:30:31;5.32;;;2.60;;
37791;SDS011;29527;55.766;37.570;2023-12-20T04:32:57;6.40;;;2.92;;
37791;SDS011;29527;55.766;37.570;2023-12-20T04:35:23;4.78;;;2.88;;
37791;SDS011;29527;55.766;37.570;2023-12-20T04:37:48;8.65;;;2.95;;
37791;SDS011;29527;55.766;37.570;2023-12-20T04:40:14;6.22;;;2.90;;
37791;SDS011;29527;55.766;37.570;2023-12-20T04:42:40;3.38;;;2.80;;
37791;SDS011;29527;55.766;37.570;2023-12-20T04:45:05;4.50;;;2.70;;
37791;SDS011;29527;55.766;37.570;2023-12-20T04:47:31;4.30;;;2.85;;
37791;SDS011;29527;55.766;37.570;2023-12-20T04:49:57;3.60;;;3.15;;
37791;SDS011;29527;55.766;37.570;2023-12-20T04:52:22;6.57;;;3.33;;
37791;SDS011;29527;55.766;37.570;2023-12-20T04:54:48;5.32;;;3.67;;
37791;SDS011;29527;55.766;37.570;2023-12-20T04:57:13;7.07;;;3.22;;
37791;SDS011;29527;55.766;37.570;2023-12-20T04:59:39;5.38;;;3.10;;
37791;SDS011;29527;55.766;37.570;2023-12-20T05:02:05;5.80;;;3.38;;
37791;SDS011;29527;55.766;37.570;2023-12-20T05:04:30;6.45;;;3.25;;
37791;SDS011;29527;55.766;37.570;2023-12-20T05:06:56;4.30;;;3.45;;
37791;SDS011;29527;55.766;37.570;2023-12-20T05:09:21;6.50;;;2.80;;
37791;SDS011;29527;55.766;37.570;2023-12-20T05:11:47;4.78;;;2.60;;
37791;SDS011;29527;55.766;37.570;2023-12-20T05:14:12;5.63;;;2.90;;
37791;SDS011;29527;55.766;37.570;2023-12-20T05:16:38;4.47;;;2.42;;
37791;SDS011;29527;55.766;37.570;2023-12-20T05:19:03;4.20;;;2.58;;
37791;SDS011;29527;55.766;37.570;2023-12-20T05:21:32;3.35;;;2.28;;
37791;SDS011;29527;55.766;37.570;2023-12-20T05:23:58;3.97;;;2.80;;
37791;SDS011;29527;55.766;37.570;2023-12-20T05:26:24;6.82;;;2.30;;
37791;SDS011;29527;55.766;37.570;2023-12-20T05:28:50;5.20;;;2.45;;
37791;SDS011;29527;55.766;37.570;2023-12-20T05:31:15;7.55;;;2.70;;
37791;SDS011;29527;55.766;37.570;2023-12-20T05:33:42;4.43;;;2.80;;
37791;SDS011;29527;55.766;37.570;2023-12-20T05:36:07;5.07;;;2.80;;
37791;SDS011;29527;55.766;37.570;2023-12-20T05:38:36;5.55;;;2.75;;
37791;SDS011;29527;55.766;37.570;2023-12-20T05:41:02;3.30;;;2.53;;
37791;SDS011;29527;55.766;37.570;2023-12-20T05:43:28;5.55;;;2.83;;
37791;SDS011;29527;55.766;37.570;2023-12-20T05:45:54;7.30;;;3.03;;
37791;SDS011;29527;55.766;37.570;2023-12-20T05:48:19;8.27;;;3.40;;
37791;SDS011;29527;55.766;37.570;2023-12-20T05:50:45;6.95;;;3.35;;
37791;SDS011;29527;55.766;37.570;2023-12-20T05:53:10;7.75;;;2.90;;
37791;SDS011;29527;55.766;37.570;2023-12-20T05:55:36;5.43;;;2.80;;
37791;SDS011;29527;55.766;37.570;2023-12-20T05:58:02;4.07;;;3.13;;
37791;SDS011;29527;55.766;37.570;2023-12-20T06:00:28;6.95;;;3.45;;
37791;SDS011;29527;55.766;37.570;2023-12-20T06:02:53;6.82;;;3.03;;
37791;SDS011;29527;55.766;37.570;2023-12-20T06:05:19;4.75;;;2.90;;
37791;SDS011;29527;55.766;37.570;2023-12-20T06:07:45;7.38;;;2.95;;
37791;SDS011;29527;55.766;37.570;2023-12-20T06:10:12;4.97;;;3.15;;
37791;SDS011;29527;55.766;37.570;2023-12-20T06:12:39;6.35;;;3.03;;
37791;SDS011;29527;55.766;37.570;2023-12-20T06:15:04;5.80;;;3.40;;
37791;SDS011;29527;55.766;37.570;2023-12-20T06:17:31;5.70;;;3.10;;
37791;SDS011;29527;55.766;37.570;2023-12-20T06:19:57;7.15;;;3.00;;
37791;SDS011;29527;55.766;37.570;2023-12-20T06:22:23;6.25;;;3.50;;
37791;SDS011;29527;55.766;37.570;2023-12-20T06:24:48;5.15;;;3.30;;
37791;SDS011;29527;55.766;37.570;2023-12-20T06:27:14;7.13;;;3.97;;
37791;SDS011;29527;55.766;37.570;2023-12-20T06:29:39;6.72;;;3.50;;
37791;SDS011;29527;55.766;37.570;2023-12-20T06:32:06;8.23;;;3.85;;
37791;SDS011;29527;55.766;37.570;2023-12-20T06:34:31;6.95;;;3.88;;
37791;SDS011;29527;55.766;37.570;2023-12-20T06:36:57;5.22;;;3.78;;
37791;SDS011;29527;55.766;37.570;2023-12-20T06:39:23;11.02;;;3.30;;
37791;SDS011;29527;55.766;37.570;2023-12-20T06:41:48;5.40;;;3.33;;
37791;SDS011;29527;55.766;37.570;2023-12-20T06:44:14;5.47;;;3.70;;
37791;SDS011;29527;55.766;37.570;2023-12-20T06:46:39;7.47;;;3.75;;
37791;SDS011;29527;55.766;37.570;2023-12-20T06:49:05;7.35;;;3.10;;
37791;SDS011;29527;55.766;37.570;2023-12-20T06:51:30;9.82;;;4.20;;
37791;SDS011;29527;55.766;37.570;2023-12-20T06:53:56;9.32;;;3.33;;
37791;SDS011;29527;55.766;37.570;2023-12-20T06:56:22;5.32;;;2.90;;
37791;SDS011;29527;55.766;37.570;2023-12-20T06:58:47;6.68;;;3.60;;
37791;SDS011;29527;55.766;37.570;2023-12-20T07:01:13;5.60;;;3.10;;
37791;SDS011;29527;55.766;37.570;2023-12-20T07:03:40;4.70;;;2.75;;
37791;SDS011;29527;55.766;37.570;2023-12-20T07:06:06;9.40;;;5.10;;
37791;SDS011;29527;55.766;37.570;2023-12-20T07:08:31;10.18;;;5.57;;
37791;SDS011;29527;55.766;37.570;2023-12-20T07:10:57;25.05;;;13.82;;
37791;SDS011;29527;55.766;37.570;2023-12-20T07:13:22;21.55;;;13.88;;
37791;SDS011;29527;55.766;37.570;2023-12-20T07:15:48;8.13;;;4.35;;
37791;SDS011;29527;55.766;37.570;2023-12-20T07:18:14;8.90;;;4.55;;
37791;SDS011;29527;55.766;37.570;2023-12-20T07:20:39;17.17;;;10.95;;
37791;SDS011;29527;55.766;37.570;2023-12-20T07:23:05;8.07;;;4.45;;
37791;SDS011;29527;55.766;37.570;2023-12-20T07:25:30;5.13;;;2.90;;
37791;SDS011;29527;55.766;37.570;2023-12-20T07:27:57;6.40;;;3.05;;
37791;SDS011;29527;55.766;37.570;2023-12-20T07:30:24;5.70;;;3.45;;
37791;SDS011;29527;55.766;37.570;2023-12-20T07:32:49;8.30;;;3.70;;
37791;SDS011;29527;55.766;37.570;2023-12-20T07:35:15;4.70;;;3.10;;
37791;SDS011;29527;55.766;37.570;2023-12-20T07:37:41;5.72;;;3.03;;
37791;SDS011;29527;55.766;37.570;2023-12-20T07:40:07;6.38;;;3.25;;
37791;SDS011;29527;55.766;37.570;2023-12-20T07:42:33;10.13;;;4.57;;
37791;SDS011;29527;55.766;37.570;2023-12-20T07:44:58;7.65;;;3.97;;
37791;SDS011;29527;55.766;37.570;2023-12-20T07:47:24;9.57;;;4.20;;
37791;SDS011;29527;55.766;37.570;2023-12-20T07:49:50;8.50;;;3.60;;
37791;SDS011;29527;55.766;37.570;2023-12-20T07:52:19;7.22;;;3.10;;
37791;SDS011;29527;55.766;37.570;2023-12-20T07:54:47;9.35;;;4.35;;
37791;SDS011;29527;55.766;37.570;2023-12-20T07:57:12;7.63;;;3.28;;
37791;SDS011;29527;55.766;37.570;2023-12-20T07:59:38;7.82;;;3.25;;
37791;SDS011;29527;55.766;37.570;2023-12-20T08:02:03;10.23;;;3.75;;
37791;SDS011;29527;55.766;37.570;2023-12-20T08:04:29;8.40;;;3.25;;
37791;SDS011;29527;55.766;37.570;2023-12-20T08:06:55;7.43;;;3.00;;
37791;SDS011;29527;55.766;37.570;2023-12-20T08:09:20;4.70;;;2.72;;
37791;SDS011;29527;55.766;37.570;2023-12-20T08:11:47;5.78;;;2.75;;
37791;SDS011;29527;55.766;37.570;2023-12-20T08:14:13;7.03;;;2.72;;
37791;SDS011;29527;55.766;37.570;2023-12-20T08:16:39;4.57;;;2.95;;
37791;SDS011;29527;55.766;37.570;2023-12-20T08:19:04;7.95;;;2.35;;
37791;SDS011;29527;55.766;37.570;2023-12-20T08:21:30;4.68;;;2.38;;
37791;SDS011;29527;55.766;37.570;2023-12-20T08:23:56;6.65;;;2.60;;
37791;SDS011;29527;55.766;37.570;2023-12-20T08:26:22;4.25;;;2.30;;
37791;SDS011;29527;55.766;37.570;2023-12-20T08:28:49;5.55;;;2.38;;
37791;SDS011;29527;55.766;37.570;2023-12-20T08:31:16;4.32;;;2.03;;
37791;SDS011;29527;55.766;37.570;2023-12-20T08:33:45;3.67;;;2.45;;
37791;SDS011;29527;55.766;37.570;2023-12-20T08:36:12;3.65;;;1.98;;
37791;SDS011;29527;55.766;37.570;2023-12-20T08:38:38;6.03;;;2.58;;
37791;SDS011;29527;55.766;37.570;2023-12-20T08:41:03;4.50;;;2.92;;
37791;SDS011;29527;55.766;37.570;2023-12-20T08:43:31;10.50;;;2.50;;
37791;SDS011;29527;55.766;37.570;2023-12-20T08:45:57;9.32;;;2.60;;
37791;SDS011;29527;55.766;37.570;2023-12-20T08:48:23;6.13;;;2.50;;
37791;SDS011;29527;55.766;37.570;2023-12-20T08:50:48;6.63;;;2.88;;
37791;SDS011;29527;55.766;37.570;2023-12-20T08:53:15;5.70;;;2.83;;
37791;SDS011;29527;55.766;37.570;2023-12-20T08:55:42;6.28;;;2.90;;
37791;SDS011;29527;55.766;37.570;2023-12-20T08:58:07;8.52;;;2.88;;
37791;SDS011;29527;55.766;37.570;2023-12-20T09:00:34;6.82;;;2.63;;
37791;SDS011;29527;55.766;37.570;2023-12-20T09:03:01;5.53;;;3.08;;
37791;SDS011;29527;55.766;37.570;2023-12-20T09:05:27;5.93;;;2.78;;
37791;SDS011;29527;55.766;37.570;2023-12-20T09:07:53;5.18;;;3.00;;
37791;SDS011;29527;55.766;37.570;2023-12-20T09:10:19;4.55;;;2.90;;
37791;SDS011;29527;55.766;37.570;2023-12-20T09:12:56;7.57;;;3.83;;
37791;SDS011;29527;55.766;37.570;2023-12-20T09:27:32;5.80;;;3.03;;
37791;SDS011;29527;55.766;37.570;2023-12-20T09:29:58;8.23;;;3.58;;
37791;SDS011;29527;55.766;37.570;2023-12-20T09:32:24;6.05;;;2.95;;
37791;SDS011;29527;55.766;37.570;2023-12-20T09:34:49;4.13;;;2.28;;
37791;SDS011;29527;55.766;37.570;2023-12-20T09:37:15;3.47;;;2.45;;
37791;SDS011;29527;55.766;37.570;2023-12-20T09:39:40;3.92;;;2.72;;
37791;SDS011;29527;55.766;37.570;2023-12-20T09:42:06;5.43;;;2.50;;
37791;SDS011;29527;55.766;37.570;2023-12-20T09:44:33;3.85;;;2.53;;
37791;SDS011;29527;55.766;37.570;2023-12-20T09:47:02;4.78;;;2.58;;
37791;SDS011;29527;55.766;37.570;2023-12-20T09:49:29;4.15;;;2.72;;
37791;SDS011;29527;55.766;37.570;2023-12-20T09:51:55;6.20;;;2.55;;
37791;SDS011;29527;55.766;37.570;2023-12-20T09:54:22;3.97;;;2.92;;
37791;SDS011;29527;55.766;37.570;2023-12-20T09:56:48;5.20;;;3.13;;
37791;SDS011;29527;55.766;37.570;2023-12-20T09:59:14;5.00;;;2.70;;
37791;SDS011;29527;55.766;37.570;2023-12-20T10:01:40;6.03;;;2.60;;
37791;SDS011;29527;55.766;37.570;2023-12-20T10:04:08;6.30;;;2.75;;
37791;SDS011;29527;55.766;37.570;2023-12-20T10:06:41;4.22;;;2.85;;
37791;SDS011;29527;55.766;37.570;2023-12-20T10:09:08;4.55;;;3.33;;
37791;SDS011;29527;55.766;37.570;2023-12-20T10:11:38;6.05;;;3.72;;
37791;SDS011;29527;55.766;37.570;2023-12-20T10:14:04;4.97;;;3.15;;
37791;SDS011;29527;55.766;37.570;2023-12-20T10:16:31;7.22;;;3.33;;
37791;SDS011;29527;55.766;37.570;2023-12-20T10:18:58;4.43;;;2.97;;
37791;SDS011;29527;55.766;37.570;2023-12-20T10:21:25;4.80;;;3.10;;
37791;SDS011;29527;55.766;37.570;2023-12-20T10:23:54;6.97;;;3.38;;
37791;SDS011;29527;55.766;37.570;2023-12-20T10:26:21;4.50;;;2.80;;
37791;SDS011;29527;55.766;37.570;2023-12-20T10:28:54;3.58;;;2.88;;
37791;SDS011;29527;55.766;37.570;2023-12-20T10:31:31;3.28;;;2.60;;
37791;SDS011;29527;55.766;37.570;2023-12-20T10:33:58;3.25;;;2.30;;
37791;SDS011;29527;55.766;37.570;2023-12-20T10:36:25;2.65;;;2.00;;
37791;SDS011;29527;55.766;37.570;2023-12-20T10:38:53;2.97;;;2.38;;
37791;SDS011;29527;55.766;37.570;2023-12-20T10:41:23;4.30;;;2.42;;
37791;SDS011;29527;55.766;37.570;2023-12-20T10:43:51;5.78;;;2.47;;
37791;SDS011;29527;55.766;37.570;2023-12-20T10:46:18;3.00;;;2.05;;
37791;SDS011;29527;55.766;37.570;2023-12-20T10:48:45;4.72;;;2.20;;
37791;SDS011;29527;55.766;37.570;2023-12-20T10:51:12;3.50;;;2.00;;
37791;SDS011;29527;55.766;37.570;2023-12-20T10:53:42;3.95;;;2.20;;
37791;SDS011;29527;55.766;37.570;2023-12-20T10:56:08;3.70;;;2.28;;
37791;SDS011;29527;55.766;37.570;2023-12-20T10:58:41;3.03;;;1.92;;
37791;SDS011;29527;55.766;37.570;2023-12-20T11:01:08;3.90;;;2.10;;
37791;SDS011;29527;55.766;37.570;2023-12-20T11:03:35;5.47;;;1.75;;
37791;SDS011;29527;55.766;37.570;2023-12-20T11:08:39;2.38;;;1.90;;
37791;SDS011;29527;55.766;37.570;2023-12-20T11:13:53;2.55;;;1.77;;
37791;SDS011;29527;55.766;37.570;2023-12-20T11:16:22;3.13;;;1.75;;
37791;SDS011;29527;55.766;37.570;2023-12-20T11:18:50;2.80;;;1.80;;
37791;SDS011;29527;55.766;37.570;2023-12-20T11:21:16;6.53;;;2.10;;
37791;SDS011;29527;55.766;37.570;2023-12-20T11:23:42;3.13;;;1.50;;
37791;SDS011;29527;55.766;37.570;2023-12-20T11:26:08;5.75;;;1.83;;
37791;SDS011;29527;55.766;37.570;2023-12-20T11:28:33;4.80;;;2.05;;
37791;SDS011;29527;55.766;37.570;2023-12-20T11:31:00;6.85;;;2.25;;
37791;SDS011;29527;55.766;37.570;2023-12-20T11:33:30;7.07;;;2.40;;
37791;SDS011;29527;55.766;37.570;2023-12-20T11:35:57;3.90;;;2.53;;
37791;SDS011;29527;55.766;37.570;2023-12-20T11:38:25;3.90;;;2.28;;
37791;SDS011;29527;55.766;37.570;2023-12-20T11:40:51;3.55;;;2.10;;
37791;SDS011;29527;55.766;37.570;2023-12-20T11:43:35;2.83;;;1.92;;
37791;SDS011;29527;55.766;37.570;2023-12-20T11:46:08;6.82;;;2.55;;
37791;SDS011;29527;55.766;37.570;2023-12-20T11:48:35;5.55;;;2.40;;
37791;SDS011;29527;55.766;37.570;2023-12-20T11:51:02;4.22;;;2.60;;
37791;SDS011;29527;55.766;37.570;2023-12-20T11:53:29;4.90;;;2.40;;
37791;SDS011;29527;55.766;37.570;2023-12-20T11:55:57;4.85;;;2.20;;
37791;SDS011;29527;55.766;37.570;2023-12-20T11:58:22;3.97;;;2.60;;
37791;SDS011;29527;55.766;37.570;2023-12-20T12:00:49;3.47;;;2.10;;
37791;SDS011;29527;55.766;37.570;2023-12-20T12:03:15;3.28;;;2.65;;
37791;SDS011;29527;55.766;37.570;2023-12-20T12:05:41;4.32;;;2.95;;
37791;SDS011;29527;55.766;37.570;2023-12-20T12:08:06;5.32;;;2.75;;
37791;SDS011;29527;55.766;37.570;2023-12-20T12:10:33;4.45;;;3.00;;
37791;SDS011;29527;55.766;37.570;2023-12-20T12:12:59;6.30;;;2.90;;
37791;SDS011;29527;55.766;37.570;2023-12-20T12:15:25;5.78;;;2.50;;
37791;SDS011;29527;55.766;37.570;2023-12-20T12:17:54;4.18;;;2.70;;
37791;SDS011;29527;55.766;37.570;2023-12-20T12:20:21;4.38;;;2.28;;
37791;SDS011;29527;55.766;37.570;2023-12-20T12:22:57;4.82;;;2.40;;
37791;SDS011;29527;55.766;37.570;2023-12-20T12:25:26;4.07;;;2.35;;
37791;SDS011;29527;55.766;37.570;2023-12-20T12:27:53;4.05;;;2.63;;
37791;SDS011;29527;55.766;37.570;2023-12-20T12:30:19;4.47;;;2.28;;
37791;SDS011;29527;55.766;37.570;2023-12-20T12:32:45;4.80;;;2.90;;
37791;SDS011;29527;55.766;37.570;2023-12-20T12:35:11;4.25;;;2.50;;
37791;SDS011;29527;55.766;37.570;2023-12-20T12:37:38;5.28;;;2.60;;
37791;SDS011;29527;55.766;37.570;2023-12-20T12:40:09;3.58;;;2.63;;
37791;SDS011;29527;55.766;37.570;2023-12-20T12:42:36;2.70;;;2.20;;
37791;SDS011;29527;55.766;37.570;2023-12-20T12:45:02;7.40;;;3.30;;
37791;SDS011;29527;55.766;37.570;2023-12-20T12:47:29;4.63;;;2.70;;
37791;SDS011;29527;55.766;37.570;2023-12-20T12:49:55;4.35;;;2.63;;
37791;SDS011;29527;55.766;37.570;2023-12-20T12:52:21;3.92;;;3.10;;
37791;SDS011;29527;55.766;37.570;2023-12-20T12:54:46;6.28;;;3.42;;
37791;SDS011;29527;55.766;37.570;2023-12-20T12:57:13;5.55;;;3.13;;
37791;SDS011;29527;55.766;37.570;2023-12-20T12:59:40;5.82;;;3.63;;
37791;SDS011;29527;55.766;37.570;2023-12-20T13:02:06;7.25;;;3.50;;
37791;SDS011;29527;55.766;37.570;2023-12-20T13:04:31;5.05;;;3.35;;
37791;SDS011;29527;55.766;37.570;2023-12-20T13:06:57;7.03;;;3.28;;
37791;SDS011;29527;55.766;37.570;2023-12-20T13:09:23;6.07;;;3.50;;
37791;SDS011;29527;55.766;37.570;2023-12-20T13:11:48;9.10;;;3.35;;
37791;SDS011;29527;55.766;37.570;2023-12-20T13:14:14;9.52;;;3.90;;
37791;SDS011;29527;55.766;37.570;2023-12-20T13:16:43;5.60;;;3.33;;
37791;SDS011;29527;55.766;37.570;2023-12-20T13:19:10;4.35;;;2.83;;
37791;SDS011;29527;55.766;37.570;2023-12-20T13:21:36;6.10;;;3.40;;
37791;SDS011;29527;55.766;37.570;2023-12-20T13:24:02;4.45;;;2.80;;
37791;SDS011;29527;55.766;37.570;2023-12-20T13:26:28;3.80;;;2.80;;
37791;SDS011;29527;55.766;37.570;2023-12-20T13:28:54;5.45;;;2.80;;
37791;SDS011;29527;55.766;37.570;2023-12-20T13:31:20;4.68;;;3.33;;
37791;SDS011;29527;55.766;37.570;2023-12-20T13:33:45;8.13;;;3.13;;
37791;SDS011;29527;55.766;37.570;2023-12-20T13:36:11;5.63;;;2.45;;
37791;SDS011;29527;55.766;37.570;2023-12-20T13:38:37;4.63;;;2.65;;
37791;SDS011;29527;55.766;37.570;2023-12-20T13:41:03;5.55;;;2.30;;
37791;SDS011;29527;55.766;37.570;2023-12-20T13:43:30;4.40;;;2.63;;
37791;SDS011;29527;55.766;37.570;2023-12-20T13:45:58;4.47;;;2.30;;
37791;SDS011;29527;55.766;37.570;2023-12-20T13:48:24;5.70;;;2.70;;
37791;SDS011;29527;55.766;37.570;2023-12-20T13:50:49;6.30;;;2.25;;
37791;SDS011;29527;55.766;37.570;2023-12-20T13:53:15;4.13;;;2.33;;
37791;SDS011;29527;55.766;37.570;2023-12-20T13:55:40;4.47;;;2.13;;
37791;SDS011;29527;55.766;37.570;2023-12-20T13:58:06;3.42;;;2.20;;
37791;SDS011;29527;55.766;37.570;2023-12-20T14:00:31;5.88;;;2.88;;
37791;SDS011;29527;55.766;37.570;2023-12-20T14:02:57;3.63;;;2.72;;
37791;SDS011;29527;55.766;37.570;2023-12-20T14:05:23;4.97;;;3.35;;
37791;SDS011;29527;55.766;37.570;2023-12-20T14:07:49;5.03;;;2.88;;
37791;SDS011;29527;55.766;37.570;2023-12-20T14:10:15;8.05;;;3.10;;
37791;SDS011;29527;55.766;37.570;2023-12-20T14:12:41;7.05;;;3.35;;
37791;SDS011;29527;55.766;37.570;2023-12-20T14:15:07;6.35;;;3.55;;
37791;SDS011;29527;55.766;37.570;2023-12-20T14:17:39;4.88;;;3.30;;
37791;SDS011;29527;55.766;37.570;2023-12-20T14:20:06;3.88;;;3.17;;
37791;SDS011;29527;55.766;37.570;2023-12-20T14:22:35;9.40;;;4.32;;
37791;SDS011;29527;55.766;37.570;2023-12-20T14:25:01;7.88;;;4.85;;
37791;SDS011;29527;55.766;37.570;2023-12-20T14:27:29;6.60;;;4.97;;
37791;SDS011;29527;55.766;37.570;2023-12-20T14:29:54;5.45;;;3.75;;
37791;SDS011;29527;55.766;37.570;2023-12-20T14:32:20;7.30;;;5.20;;
37791;SDS011;29527;55.766;37.570;2023-12-20T14:34:46;6.47;;;5.10;;
37791;SDS011;29527;55.766;37.570;2023-12-20T14:37:12;8.63;;;5.90;;
37791;SDS011;29527;55.766;37.570;2023-12-20T14:39:37;7.45;;;5.15;;
37791;SDS011;29527;55.766;37.570;2023-12-20T14:42:07;5.22;;;3.72;;
37791;SDS011;29527;55.766;37.570;2023-12-20T14:44:42;5.60;;;4.30;;